sensor_id;sensor_type;location;lat;lon;timestamp;P1;durP1;ratioP1;P2;durP2;ratioP2
63900;SDS011;50538;53.482;10.294;2023-08-20T00:09:53;5.65;;;1.60;;
63900;SDS011;50538;53.482;10.294;2023-08-20T00:20:02;8.10;;;2.08;;
63900;SDS011;50538;53.482;10.294;2023-08-20T00:30:12;3.65;;;1.60;;
63900;SDS011;50538;53.482;10.294;2023-08-20T00:40:14;6.57;;;1.63;;
63900;SDS011;50538;53.482;10.294;2023-08-20T00:50:14;6.05;;;2.00;;
63900;SDS011;50538;53.482;10.294;2023-08-20T01:00:23;8.23;;;2.63;;
63900;SDS011;50538;53.482;10.294;2023-08-20T01:21:11;4.68;;;1.58;;
63900;SDS011;50538;53.482;10.294;2023-08-20T01:31:27;4.35;;;1.70;;
63900;SDS011;50538;53.482;10.294;2023-08-20T01:41:39;7.70;;;1.67;;
63900;SDS011;50538;53.482;10.294;2023-08-20T01:51:41;3.53;;;1.40;;
63900;SDS011;50538;53.482;10.294;2023-08-20T02:01:44;4.10;;;1.65;;
63900;SDS011;50538;53.482;10.294;2023-08-20T02:11:57;2.30;;;1.40;;
63900;SDS011;50538;53.482;10.294;2023-08-20T02:22:00;4.10;;;1.60;;
63900;SDS011;50538;53.482;10.294;2023-08-20T02:32:29;3.90;;;1.60;;
63900;SDS011;50538;53.482;10.294;2023-08-20T02:42:36;5.03;;;1.50;;
63900;SDS011;50538;53.482;10.294;2023-08-20T02:52:40;2.63;;;1.30;;
63900;SDS011;50538;53.482;10.294;2023-08-20T03:02:43;4.93;;;1.70;;
63900;SDS011;50538;53.482;10.294;2023-08-20T03:12:45;7.05;;;2.00;;
63900;SDS011;50538;53.482;10.294;2023-08-20T03:22:49;12.27;;;3.25;;
63900;SDS011;50538;53.482;10.294;2023-08-20T03:32:57;7.78;;;2.65;;
63900;SDS011;50538;53.482;10.294;2023-08-20T03:42:59;5.40;;;2.40;;
63900;SDS011;50538;53.482;10.294;2023-08-20T03:53:03;3.23;;;1.60;;
63900;SDS011;50538;53.482;10.294;2023-08-20T04:03:20;6.97;;;1.90;;
63900;SDS011;50538;53.482;10.294;2023-08-20T04:13:25;5.57;;;2.00;;
63900;SDS011;50538;53.482;10.294;2023-08-20T04:23:27;3.42;;;2.00;;
63900;SDS011;50538;53.482;10.294;2023-08-20T04:33:39;6.10;;;1.80;;
63900;SDS011;50538;53.482;10.294;2023-08-20T04:44:09;5.75;;;1.98;;
63900;SDS011;50538;53.482;10.294;2023-08-20T04:54:12;4.50;;;2.00;;
63900;SDS011;50538;53.482;10.294;2023-08-20T05:04:15;7.40;;;3.23;;
63900;SDS011;50538;53.482;10.294;2023-08-20T05:14:30;25.23;;;8.65;;
63900;SDS011;50538;53.482;10.294;2023-08-20T05:24:33;11.40;;;4.85;;
63900;SDS011;50538;53.482;10.294;2023-08-20T05:34:54;4.68;;;2.28;;
63900;SDS011;50538;53.482;10.294;2023-08-20T05:44:55;3.88;;;1.95;;
63900;SDS011;50538;53.482;10.294;2023-08-20T05:54:56;2.67;;;1.50;;
63900;SDS011;50538;53.482;10.294;2023-08-20T06:04:57;3.30;;;1.77;;
63900;SDS011;50538;53.482;10.294;2023-08-20T06:15:02;3.28;;;1.85;;
63900;SDS011;50538;53.482;10.294;2023-08-20T06:25:03;11.77;;;2.22;;
63900;SDS011;50538;53.482;10.294;2023-08-20T06:35:07;3.22;;;2.10;;
63900;SDS011;50538;53.482;10.294;2023-08-20T06:45:11;4.65;;;2.55;;
63900;SDS011;50538;53.482;10.294;2023-08-20T06:55:17;4.85;;;2.10;;
63900;SDS011;50538;53.482;10.294;2023-08-20T07:05:20;3.72;;;2.05;;
63900;SDS011;50538;53.482;10.294;2023-08-20T07:15:21;5.53;;;2.22;;
63900;SDS011;50538;53.482;10.294;2023-08-20T07:25:22;6.80;;;3.03;;
63900;SDS011;50538;53.482;10.294;2023-08-20T07:35:22;8.82;;;3.45;;
63900;SDS011;50538;53.482;10.294;2023-08-20T07:45:23;22.58;;;9.48;;
63900;SDS011;50538;53.482;10.294;2023-08-20T07:55:23;22.85;;;8.73;;
63900;SDS011;50538;53.482;10.294;2023-08-20T08:05:24;16.23;;;6.25;;
63900;SDS011;50538;53.482;10.294;2023-08-20T08:15:24;9.57;;;3.47;;
63900;SDS011;50538;53.482;10.294;2023-08-20T08:25:25;6.78;;;2.72;;
63900;SDS011;50538;53.482;10.294;2023-08-20T08:35:25;4.20;;;1.70;;
63900;SDS011;50538;53.482;10.294;2023-08-20T08:45:26;6.00;;;2.40;;
63900;SDS011;50538;53.482;10.294;2023-08-20T08:55:27;6.72;;;2.15;;
63900;SDS011;50538;53.482;10.294;2023-08-20T09:05:27;5.68;;;1.70;;
63900;SDS011;50538;53.482;10.294;2023-08-20T09:15:31;7.65;;;2.63;;
63900;SDS011;50538;53.482;10.294;2023-08-20T09:25:36;5.00;;;1.73;;
63900;SDS011;50538;53.482;10.294;2023-08-20T09:35:37;5.72;;;2.25;;
63900;SDS011;50538;53.482;10.294;2023-08-20T09:45:38;8.47;;;1.67;;
63900;SDS011;50538;53.482;10.294;2023-08-20T09:55:40;5.43;;;1.60;;
63900;SDS011;50538;53.482;10.294;2023-08-20T10:05:42;4.93;;;2.00;;
63900;SDS011;50538;53.482;10.294;2023-08-20T10:15:42;6.80;;;1.70;;
63900;SDS011;50538;53.482;10.294;2023-08-20T10:25:43;4.75;;;1.40;;
63900;SDS011;50538;53.482;10.294;2023-08-20T10:35:48;3.97;;;1.40;;
63900;SDS011;50538;53.482;10.294;2023-08-20T10:46:01;5.20;;;1.17;;
63900;SDS011;50538;53.482;10.294;2023-08-20T10:56:18;4.38;;;1.73;;
63900;SDS011;50538;53.482;10.294;2023-08-20T11:06:18;4.55;;;1.70;;
63900;SDS011;50538;53.482;10.294;2023-08-20T11:16:19;2.78;;;1.48;;
63900;SDS011;50538;53.482;10.294;2023-08-20T11:26:20;4.13;;;1.48;;
63900;SDS011;50538;53.482;10.294;2023-08-20T11:36:20;6.83;;;1.77;;
63900;SDS011;50538;53.482;10.294;2023-08-20T11:46:23;6.40;;;1.93;;
63900;SDS011;50538;53.482;10.294;2023-08-20T11:56:24;3.38;;;1.60;;
63900;SDS011;50538;53.482;10.294;2023-08-20T12:06:24;6.33;;;1.80;;
63900;SDS011;50538;53.482;10.294;2023-08-20T12:16:24;4.73;;;1.50;;
63900;SDS011;50538;53.482;10.294;2023-08-20T12:26:25;6.00;;;1.58;;
63900;SDS011;50538;53.482;10.294;2023-08-20T12:36:25;7.47;;;1.80;;
63900;SDS011;50538;53.482;10.294;2023-08-20T12:46:26;3.90;;;1.60;;
63900;SDS011;50538;53.482;10.294;2023-08-20T12:56:28;6.45;;;1.67;;
63900;SDS011;50538;53.482;10.294;2023-08-20T13:06:28;6.35;;;1.60;;
63900;SDS011;50538;53.482;10.294;2023-08-20T13:16:30;4.47;;;1.45;;
63900;SDS011;50538;53.482;10.294;2023-08-20T13:26:30;4.07;;;1.40;;
63900;SDS011;50538;53.482;10.294;2023-08-20T13:36:32;5.53;;;1.60;;
63900;SDS011;50538;53.482;10.294;2023-08-20T13:46:32;4.28;;;1.80;;
63900;SDS011;50538;53.482;10.294;2023-08-20T13:56:33;4.85;;;1.70;;
63900;SDS011;50538;53.482;10.294;2023-08-20T14:06:34;3.10;;;1.48;;
63900;SDS011;50538;53.482;10.294;2023-08-20T14:16:34;4.00;;;1.88;;
63900;SDS011;50538;53.482;10.294;2023-08-20T14:26:35;4.45;;;1.70;;
63900;SDS011;50538;53.482;10.294;2023-08-20T14:36:38;2.47;;;1.48;;
63900;SDS011;50538;53.482;10.294;2023-08-20T14:46:39;6.13;;;1.80;;
63900;SDS011;50538;53.482;10.294;2023-08-20T14:56:39;2.75;;;1.50;;
63900;SDS011;50538;53.482;10.294;2023-08-20T15:06:41;2.67;;;1.42;;
63900;SDS011;50538;53.482;10.294;2023-08-20T15:16:41;3.17;;;1.60;;
63900;SDS011;50538;53.482;10.294;2023-08-20T15:26:42;4.35;;;1.75;;
63900;SDS011;50538;53.482;10.294;2023-08-20T15:36:44;3.60;;;1.65;;
63900;SDS011;50538;53.482;10.294;2023-08-20T15:46:44;2.83;;;1.30;;
63900;SDS011;50538;53.482;10.294;2023-08-20T15:56:44;2.75;;;1.50;;
63900;SDS011;50538;53.482;10.294;2023-08-20T16:06:45;5.97;;;1.80;;
63900;SDS011;50538;53.482;10.294;2023-08-20T16:16:46;3.10;;;1.35;;
63900;SDS011;50538;53.482;10.294;2023-08-20T16:26:46;3.00;;;1.52;;
63900;SDS011;50538;53.482;10.294;2023-08-20T16:36:48;4.43;;;1.20;;
63900;SDS011;50538;53.482;10.294;2023-08-20T16:46:49;5.35;;;1.48;;
63900;SDS011;50538;53.482;10.294;2023-08-20T16:56:50;5.97;;;2.57;;
63900;SDS011;50538;53.482;10.294;2023-08-20T17:06:50;3.42;;;1.50;;
63900;SDS011;50538;53.482;10.294;2023-08-20T17:16:50;3.42;;;1.45;;
63900;SDS011;50538;53.482;10.294;2023-08-20T17:26:51;4.22;;;1.80;;
63900;SDS011;50538;53.482;10.294;2023-08-20T17:36:56;4.25;;;1.40;;
63900;SDS011;50538;53.482;10.294;2023-08-20T17:46:57;5.00;;;1.20;;
63900;SDS011;50538;53.482;10.294;2023-08-20T17:56:57;1.90;;;1.02;;
63900;SDS011;50538;53.482;10.294;2023-08-20T18:06:59;2.17;;;1.20;;
63900;SDS011;50538;53.482;10.294;2023-08-20T18:17:00;2.95;;;0.98;;
63900;SDS011;50538;53.482;10.294;2023-08-20T18:27:01;4.10;;;1.33;;
63900;SDS011;50538;53.482;10.294;2023-08-20T18:37:02;3.87;;;1.10;;
63900;SDS011;50538;53.482;10.294;2023-08-20T18:47:02;3.90;;;1.30;;
63900;SDS011;50538;53.482;10.294;2023-08-20T18:57:03;2.37;;;1.03;;
63900;SDS011;50538;53.482;10.294;2023-08-20T19:07:04;3.25;;;1.30;;
63900;SDS011;50538;53.482;10.294;2023-08-20T19:17:05;3.97;;;1.00;;
63900;SDS011;50538;53.482;10.294;2023-08-20T19:27:05;3.60;;;1.02;;
63900;SDS011;50538;53.482;10.294;2023-08-20T19:37:05;8.13;;;1.73;;
63900;SDS011;50538;53.482;10.294;2023-08-20T19:47:06;1.73;;;0.80;;
63900;SDS011;50538;53.482;10.294;2023-08-20T19:57:06;2.72;;;0.88;;
63900;SDS011;50538;53.482;10.294;2023-08-20T20:07:07;3.42;;;0.90;;
63900;SDS011;50538;53.482;10.294;2023-08-20T20:17:07;1.83;;;0.77;;
63900;SDS011;50538;53.482;10.294;2023-08-20T20:27:08;8.02;;;1.27;;
63900;SDS011;50538;53.482;10.294;2023-08-20T20:37:08;4.30;;;1.00;;
63900;SDS011;50538;53.482;10.294;2023-08-20T20:47:08;2.00;;;0.90;;
63900;SDS011;50538;53.482;10.294;2023-08-20T20:57:09;1.90;;;1.13;;
63900;SDS011;50538;53.482;10.294;2023-08-20T21:07:09;3.63;;;1.20;;
63900;SDS011;50538;53.482;10.294;2023-08-20T21:17:10;3.35;;;1.00;;
63900;SDS011;50538;53.482;10.294;2023-08-20T21:27:10;2.95;;;1.20;;
63900;SDS011;50538;53.482;10.294;2023-08-20T21:37:11;2.85;;;1.00;;
63900;SDS011;50538;53.482;10.294;2023-08-20T21:47:21;3.22;;;1.30;;
63900;SDS011;50538;53.482;10.294;2023-08-20T21:57:25;3.13;;;0.90;;
63900;SDS011;50538;53.482;10.294;2023-08-20T22:07:25;3.72;;;1.10;;
63900;SDS011;50538;53.482;10.294;2023-08-20T22:17:25;2.25;;;0.90;;
63900;SDS011;50538;53.482;10.294;2023-08-20T22:27:26;2.10;;;0.90;;
63900;SDS011;50538;53.482;10.294;2023-08-20T22:37:26;3.42;;;0.88;;
63900;SDS011;50538;53.482;10.294;2023-08-20T22:47:26;5.25;;;1.20;;
63900;SDS011;50538;53.482;10.294;2023-08-20T22:57:27;3.10;;;0.90;;
63900;SDS011;50538;53.482;10.294;2023-08-20T23:07:27;5.13;;;0.93;;
63900;SDS011;50538;53.482;10.294;2023-08-20T23:17:28;2.47;;;1.02;;
63900;SDS011;50538;53.482;10.294;2023-08-20T23:27:29;2.85;;;1.00;;
63900;SDS011;50538;53.482;10.294;2023-08-20T23:37:30;2.05;;;1.13;;
63900;SDS011;50538;53.482;10.294;2023-08-20T23:47:30;2.55;;;1.27;;
63900;SDS011;50538;53.482;10.294;2023-08-20T23:57:31;4.25;;;1.10;;
